createdAt,value
2017-10-11T00:00:59.360Z,12.30
2017-10-11T00:03:26.770Z,12.30
2017-10-11T00:05:54.282Z,12.30
2017-10-11T00:08:21.667Z,12.30
2017-10-11T00:10:49.188Z,12.40
2017-10-11T00:13:16.593Z,12.40
2017-10-11T00:15:44.006Z,12.30
2017-10-11T00:18:11.430Z,12.30
2017-10-11T00:20:38.844Z,12.30
2017-10-11T00:23:06.259Z,12.40
2017-10-11T00:25:33.725Z,12.30
2017-10-11T00:28:01.186Z,12.30
2017-10-11T00:30:28.597Z,12.30
2017-10-11T00:32:56.802Z,12.30
2017-10-11T00:35:24.218Z,12.30
2017-10-11T00:37:51.638Z,12.20
2017-10-11T00:40:19.054Z,12.20
2017-10-11T00:42:47.246Z,12.20
2017-10-11T00:45:14.642Z,12.20
2017-10-11T00:47:42.168Z,12.20
2017-10-11T00:50:09.583Z,12.20
2017-10-11T00:52:37.771Z,12.30
2017-10-11T00:55:05.950Z,12.20
2017-10-11T00:57:33.374Z,12.20
2017-10-11T01:00:00.791Z,12.30
2017-10-11T01:02:28.245Z,12.20
2017-10-11T01:04:55.662Z,12.30
2017-10-11T01:07:23.831Z,12.20
2017-10-11T01:09:52.014Z,12.20
2017-10-11T01:12:20.200Z,12.20
2017-10-11T01:14:47.672Z,12.20
2017-10-11T01:17:15.073Z,12.10
2017-10-11T01:19:42.513Z,12.10
2017-10-11T01:22:09.919Z,12.10
2017-10-11T01:24:38.221Z,12.10
2017-10-11T01:27:05.655Z,12.10
2017-10-11T01:29:33.834Z,12.10
2017-10-11T01:32:01.238Z,12.10
2017-10-11T01:34:28.675Z,12.00
2017-10-11T01:36:56.082Z,12.00
2017-10-11T01:39:24.257Z,12.10
2017-10-11T01:41:52.451Z,12.10
2017-10-11T01:44:19.861Z,12.10
2017-10-11T01:46:47.286Z,12.10
2017-10-11T01:49:14.694Z,12.20
2017-10-11T01:51:42.886Z,12.20
2017-10-11T01:54:11.087Z,12.20
2017-10-11T01:56:38.502Z,12.20
2017-10-11T01:59:05.914Z,12.30
2017-10-11T02:01:33.430Z,12.30
2017-10-11T02:04:00.846Z,12.40
2017-10-11T02:06:28.364Z,12.50
2017-10-11T02:08:55.774Z,12.50
2017-10-11T02:11:23.197Z,12.60
2017-10-11T02:13:50.610Z,12.60
2017-10-11T02:16:18.790Z,12.80
2017-10-11T02:18:46.225Z,12.80
2017-10-11T02:21:14.393Z,12.80
2017-10-11T02:23:41.811Z,12.80
2017-10-11T02:26:09.226Z,12.90
2017-10-11T02:28:37.537Z,12.90
2017-10-11T02:31:04.933Z,12.90
2017-10-11T02:33:32.360Z,13.00
2017-10-11T02:35:59.783Z,12.90
2017-10-11T02:38:27.194Z,12.90
2017-10-11T02:40:54.607Z,12.90
2017-10-11T02:43:22.019Z,12.90
2017-10-11T02:45:49.434Z,12.90
2017-10-11T02:48:17.378Z,13.00
2017-10-11T02:50:44.845Z,12.90
2017-10-11T02:53:12.277Z,12.90
2017-10-11T02:55:39.681Z,12.90
2017-10-11T02:58:07.107Z,12.90
2017-10-11T03:00:34.748Z,12.90
2017-10-11T03:03:02.949Z,13.00
2017-10-11T03:05:30.371Z,13.00
2017-10-11T03:07:58.545Z,13.00
2017-10-11T03:10:26.732Z,13.00
2017-10-11T03:12:54.145Z,13.00
2017-10-11T03:15:22.394Z,12.90
2017-10-11T03:17:49.817Z,12.80
2017-10-11T03:20:18.003Z,12.90
2017-10-11T03:22:45.419Z,12.90
2017-10-11T03:25:12.838Z,12.80
2017-10-11T03:27:40.300Z,12.80
2017-10-11T03:30:07.727Z,12.80
2017-10-11T03:32:35.202Z,12.90
2017-10-11T03:35:02.609Z,12.90
2017-10-11T03:37:30.027Z,12.80
2017-10-11T03:39:57.437Z,12.80
2017-10-11T03:42:25.622Z,12.90
2017-10-11T03:44:53.030Z,12.90
2017-10-11T03:47:20.455Z,12.90
2017-10-11T03:49:47.898Z,12.90
2017-10-11T03:52:15.315Z,12.80
2017-10-11T03:54:42.727Z,12.70
2017-10-11T03:57:10.146Z,12.80
2017-10-11T03:59:38.322Z,12.80
2017-10-11T04:02:06.617Z,12.80
2017-10-11T04:04:34.027Z,12.80
2017-10-11T04:07:01.450Z,12.90
2017-10-11T04:09:28.864Z,12.90
2017-10-11T04:11:57.054Z,12.80
2017-10-11T04:14:24.466Z,12.80
2017-10-11T04:16:52.689Z,12.80
2017-10-11T04:19:20.110Z,12.70
2017-10-11T04:21:47.522Z,12.70
2017-10-11T04:24:14.946Z,12.70
2017-10-11T04:26:42.382Z,12.80
2017-10-11T04:29:10.558Z,12.90
2017-10-11T04:31:38.738Z,12.90
2017-10-11T04:34:06.922Z,12.80
2017-10-11T04:36:34.334Z,12.80
2017-10-11T04:39:01.767Z,12.80
2017-10-11T04:41:29.843Z,12.80
2017-10-11T04:43:57.257Z,12.80
2017-10-11T04:46:25.435Z,12.90
2017-10-11T04:48:52.850Z,12.80
2017-10-11T04:51:21.039Z,12.90
2017-10-11T04:53:48.454Z,12.90
2017-10-11T04:56:15.875Z,12.80
2017-10-11T04:58:44.050Z,12.70
2017-10-11T05:01:12.234Z,12.70
2017-10-11T05:03:39.654Z,12.70
2017-10-11T05:06:07.074Z,12.70
2017-10-11T05:08:34.507Z,12.80
2017-10-11T05:11:01.924Z,12.70
2017-10-11T05:13:29.337Z,12.70
2017-10-11T05:15:56.763Z,12.80
2017-10-11T05:18:24.181Z,12.80
2017-10-11T05:20:51.603Z,12.80
2017-10-11T05:23:19.016Z,12.70
2017-10-11T05:25:47.217Z,12.40
2017-10-11T05:28:14.613Z,12.40
2017-10-11T05:30:42.039Z,12.40
2017-10-11T05:33:09.450Z,12.40
2017-10-11T05:35:36.868Z,12.40
2017-10-11T05:38:04.274Z,12.30
2017-10-11T05:40:32.463Z,12.30
2017-10-11T05:42:59.878Z,12.30
2017-10-11T05:45:27.298Z,12.30
2017-10-11T05:47:54.703Z,12.40
2017-10-11T05:50:22.138Z,12.40
2017-10-11T05:52:49.575Z,12.30
2017-10-11T05:55:16.990Z,12.20
2017-10-11T05:57:45.167Z,12.20
2017-10-11T06:00:13.342Z,12.30
2017-10-11T06:02:41.526Z,12.40
2017-10-11T06:05:08.939Z,12.40
2017-10-11T06:07:36.379Z,12.50
2017-10-11T06:10:03.769Z,12.50
2017-10-11T06:12:31.973Z,12.50
2017-10-11T06:14:59.369Z,12.50
2017-10-11T06:17:26.803Z,12.60
2017-10-11T06:19:54.200Z,12.60
2017-10-11T06:22:21.637Z,12.70
2017-10-11T06:24:49.045Z,12.70
2017-10-11T06:27:17.224Z,12.70
2017-10-11T06:29:44.645Z,12.70
2017-10-11T06:32:12.071Z,12.70
2017-10-11T06:34:39.489Z,12.50
2017-10-11T06:37:06.899Z,12.60
2017-10-11T06:39:34.323Z,12.70
2017-10-11T06:42:01.731Z,12.90
2017-10-11T06:44:29.923Z,13.40
2017-10-11T06:46:57.334Z,13.40
2017-10-11T06:49:24.757Z,13.90
2017-10-11T06:51:52.161Z,13.90
2017-10-11T06:54:19.586Z,13.60
2017-10-11T06:56:47.002Z,13.30
2017-10-11T06:59:14.418Z,13.10
2017-10-11T07:01:41.843Z,13.00
2017-10-11T07:04:09.271Z,13.10
2017-10-11T07:06:36.691Z,13.30
2017-10-11T07:09:04.093Z,13.80
2017-10-11T07:11:31.514Z,14.90
2017-10-11T07:13:58.926Z,15.30
2017-10-11T07:16:26.329Z,15.70
2017-10-11T07:18:54.518Z,16.70
2017-10-11T07:21:22.698Z,16.70
2017-10-11T07:23:50.122Z,16.80
2017-10-11T07:26:17.522Z,17.30
2017-10-11T07:28:44.947Z,17.90
2017-10-11T07:31:13.130Z,17.20
2017-10-11T07:33:41.320Z,16.70
2017-10-11T07:36:08.725Z,16.70
2017-10-11T07:38:36.138Z,16.50
2017-10-11T07:41:03.567Z,16.40
2017-10-11T07:43:31.758Z,16.00
2017-10-11T07:45:59.942Z,15.60
2017-10-11T07:48:27.362Z,15.50
2017-10-11T07:50:54.787Z,15.50
2017-10-11T07:53:22.966Z,15.30
2017-10-11T07:55:50.389Z,15.30
2017-10-11T07:58:17.788Z,15.10
2017-10-11T08:00:45.197Z,14.90
2017-10-11T08:03:12.613Z,14.90
2017-10-11T08:05:40.044Z,14.90
2017-10-11T08:08:07.459Z,15.00
2017-10-11T08:10:34.878Z,14.70
2017-10-11T08:13:02.295Z,14.70
2017-10-11T08:15:29.697Z,14.90
2017-10-11T08:17:57.874Z,15.20
2017-10-11T08:20:26.062Z,15.10
2017-10-11T08:22:54.246Z,15.10
2017-10-11T08:25:21.661Z,15.10
2017-10-11T08:27:49.095Z,15.30
2017-10-11T08:30:16.514Z,15.60
2017-10-11T08:32:44.690Z,15.90
2017-10-11T08:35:14.913Z,15.90
2017-10-11T08:37:42.330Z,16.00
2017-10-11T08:40:09.745Z,15.70
2017-10-11T08:42:37.167Z,16.00
2017-10-11T08:45:05.350Z,15.40
2017-10-11T08:47:32.766Z,15.30
2017-10-11T08:50:00.186Z,15.30
2017-10-11T08:52:27.594Z,15.20
2017-10-11T08:54:55.773Z,14.90
2017-10-11T08:57:23.969Z,14.70
2017-10-11T08:59:51.375Z,14.70
2017-10-11T09:02:18.795Z,14.40
2017-10-11T09:04:46.209Z,14.50
2017-10-11T09:07:13.627Z,14.50
2017-10-11T09:09:41.038Z,14.50
2017-10-11T09:12:09.232Z,14.60
2017-10-11T09:14:36.642Z,14.50
2017-10-11T09:17:04.070Z,14.40
2017-10-11T09:19:31.481Z,14.40
2017-10-11T09:21:59.658Z,14.80
2017-10-11T09:24:27.070Z,14.70
2017-10-11T09:26:54.499Z,15.00
2017-10-11T09:29:21.910Z,15.20
2017-10-11T09:31:50.093Z,14.60
2017-10-11T09:34:18.271Z,14.60
2017-10-11T09:36:46.456Z,14.80
2017-10-11T09:39:14.631Z,14.90
2017-10-11T09:41:42.048Z,15.00
2017-10-11T09:44:09.463Z,15.20
2017-10-11T09:46:36.877Z,15.20
2017-10-11T09:49:05.065Z,15.40
2017-10-11T09:51:33.239Z,15.40
2017-10-11T09:54:00.649Z,15.40
2017-10-11T09:56:28.074Z,15.50
2017-10-11T09:58:55.490Z,15.40
2017-10-11T10:01:23.663Z,14.90
2017-10-11T10:03:51.847Z,14.20
2017-10-11T10:06:20.031Z,14.10
2017-10-11T10:08:47.442Z,14.10
2017-10-11T10:11:14.851Z,14.00
2017-10-11T10:13:42.270Z,14.00
2017-10-11T10:16:09.671Z,14.10
2017-10-11T10:18:37.098Z,14.20
2017-10-11T10:21:05.282Z,14.40
2017-10-11T10:23:32.708Z,14.40
2017-10-11T10:26:00.116Z,14.40
2017-10-11T10:28:27.543Z,14.20
2017-10-11T10:30:55.715Z,14.20
2017-10-11T10:33:23.902Z,14.20
2017-10-11T10:35:51.319Z,14.20
2017-10-11T10:38:18.737Z,14.30
2017-10-11T10:40:46.150Z,14.60
2017-10-11T10:43:14.351Z,15.20
2017-10-11T10:45:41.752Z,15.10
2017-10-11T10:48:09.170Z,15.20
2017-10-11T10:50:36.587Z,15.40
2017-10-11T10:53:04.761Z,15.80
2017-10-11T10:55:32.945Z,16.40
2017-10-11T10:58:01.127Z,16.40
2017-10-11T11:00:29.310Z,16.10
2017-10-11T11:02:56.714Z,16.10
2017-10-11T11:05:24.138Z,16.20
2017-10-11T11:07:51.550Z,16.20
2017-10-11T11:10:19.746Z,16.10
2017-10-11T11:12:47.159Z,16.10
2017-10-11T11:15:14.581Z,15.80
2017-10-11T11:17:41.998Z,16.00
2017-10-11T11:20:10.192Z,16.10
2017-10-11T11:22:38.358Z,16.20
2017-10-11T11:25:06.554Z,16.00
2017-10-11T11:27:33.980Z,16.00
2017-10-11T11:30:02.170Z,16.50
2017-10-11T11:32:29.581Z,16.50
2017-10-11T11:34:57.006Z,16.60
2017-10-11T11:37:24.418Z,16.90
2017-10-11T11:39:52.599Z,18.40
2017-10-11T11:42:20.779Z,19.20
2017-10-11T11:44:48.978Z,20.40
2017-10-11T11:47:16.384Z,20.30
2017-10-11T11:49:43.797Z,21.10
2017-10-11T11:52:11.210Z,21.50
2017-10-11T11:54:39.398Z,22.20
2017-10-11T11:57:06.815Z,22.20
2017-10-11T11:59:34.232Z,22.30
2017-10-11T12:02:01.642Z,22.70
2017-10-11T12:04:29.071Z,22.10
2017-10-11T12:06:56.482Z,21.70
2017-10-11T12:09:23.898Z,21.10
2017-10-11T12:11:51.327Z,20.70
2017-10-11T12:14:18.749Z,20.30
2017-10-11T12:16:46.166Z,19.80
2017-10-11T12:19:13.580Z,20.20
2017-10-11T12:21:41.000Z,19.90
2017-10-11T12:24:09.178Z,19.60
2017-10-11T12:26:37.374Z,19.30
2017-10-11T12:29:04.781Z,19.30
2017-10-11T12:31:32.190Z,19.00
2017-10-11T12:33:59.594Z,18.80
2017-10-11T12:36:27.021Z,18.80
2017-10-11T12:38:54.434Z,18.70
2017-10-11T12:41:22.623Z,18.80
2017-10-11T12:43:50.043Z,18.80
2017-10-11T12:46:17.457Z,18.60
2017-10-11T12:48:44.863Z,18.40
2017-10-11T12:51:13.047Z,18.10
2017-10-11T12:53:41.232Z,18.10
2017-10-11T12:56:09.418Z,17.90
2017-10-11T12:58:36.833Z,17.90
2017-10-11T13:01:04.254Z,17.50
2017-10-11T13:03:31.666Z,17.40
2017-10-11T13:05:59.845Z,17.60
2017-10-11T13:08:27.283Z,17.50
2017-10-11T13:10:54.698Z,17.50
2017-10-11T13:13:22.110Z,17.50
2017-10-11T13:15:50.298Z,17.40
2017-10-11T13:18:17.701Z,17.40
2017-10-11T13:20:45.124Z,17.30
2017-10-11T13:23:12.535Z,16.90
2017-10-11T13:25:40.718Z,16.70
2017-10-11T13:28:08.903Z,16.60
2017-10-11T13:30:37.077Z,16.60
2017-10-11T13:33:05.339Z,16.60
2017-10-11T13:35:33.522Z,16.70
2017-10-11T13:38:01.694Z,16.50
2017-10-11T13:40:29.873Z,16.40
2017-10-11T13:42:57.291Z,16.40
2017-10-11T13:45:24.708Z,16.20
2017-10-11T13:47:52.126Z,16.00
2017-10-11T13:50:19.542Z,15.90
2017-10-11T13:52:46.950Z,16.00
2017-10-11T13:55:15.145Z,16.30
2017-10-11T13:57:42.550Z,16.20
2017-10-11T14:00:09.971Z,16.40
2017-10-11T14:02:37.390Z,16.50
2017-10-11T14:05:05.570Z,16.30
2017-10-11T14:07:33.749Z,16.30
2017-10-11T14:10:01.162Z,16.30
2017-10-11T14:12:28.586Z,16.30
2017-10-11T14:14:56.002Z,16.30
2017-10-11T14:17:24.182Z,15.90
2017-10-11T14:19:52.362Z,15.70
2017-10-11T14:22:19.793Z,15.70
2017-10-11T14:24:47.201Z,15.70
2017-10-11T14:27:14.633Z,15.80
2017-10-11T14:29:42.043Z,15.90
2017-10-11T14:32:10.135Z,15.90
2017-10-11T14:34:37.546Z,15.80
2017-10-11T14:37:04.973Z,15.70
2017-10-11T14:39:33.142Z,15.80
2017-10-11T14:42:00.562Z,15.80
2017-10-11T14:44:28.741Z,15.50
2017-10-11T14:46:56.156Z,15.50
2017-10-11T14:49:23.563Z,15.60
2017-10-11T14:51:50.982Z,15.70
2017-10-11T14:54:18.389Z,15.70
2017-10-11T14:56:46.565Z,15.80
2017-10-11T14:59:14.753Z,15.90
2017-10-11T15:01:42.158Z,15.90
2017-10-11T15:04:09.579Z,15.80
2017-10-11T15:06:36.985Z,15.80
2017-10-11T15:09:04.422Z,15.80
2017-10-11T15:11:31.839Z,15.80
2017-10-11T15:13:59.258Z,15.80
2017-10-11T15:16:27.444Z,15.80
2017-10-11T15:18:55.619Z,15.80
2017-10-11T15:21:23.790Z,15.80
2017-10-11T15:23:51.970Z,15.70
2017-10-11T15:26:20.149Z,15.60
2017-10-11T15:28:47.561Z,15.60
2017-10-11T15:31:14.985Z,15.50
2017-10-11T15:33:42.394Z,15.60
2017-10-11T15:36:10.719Z,15.80
2017-10-11T15:38:38.147Z,15.60
2017-10-11T15:41:06.305Z,15.30
2017-10-11T15:43:34.486Z,15.30
2017-10-11T15:46:02.658Z,15.30
2017-10-11T15:48:30.848Z,15.20
2017-10-11T15:50:58.257Z,15.20
2017-10-11T15:53:25.678Z,15.20
2017-10-11T15:55:53.090Z,15.20
2017-10-11T15:58:20.521Z,15.10
2017-10-11T16:00:47.926Z,15.00
2017-10-11T16:03:15.345Z,15.00
2017-10-11T16:05:42.749Z,15.00
2017-10-11T16:08:10.181Z,15.10
2017-10-11T16:10:37.587Z,14.80
2017-10-11T16:13:05.018Z,14.80
2017-10-11T16:15:32.428Z,14.80
2017-10-11T16:17:59.846Z,14.70
2017-10-11T16:20:27.266Z,14.70
2017-10-11T16:22:55.442Z,14.60
2017-10-11T16:25:23.637Z,14.40
2017-10-11T16:27:51.038Z,14.30
2017-10-11T16:30:18.454Z,14.50
2017-10-11T16:32:45.870Z,14.40
2017-10-11T16:35:14.053Z,14.50
2017-10-11T16:37:42.239Z,14.30
2017-10-11T16:40:09.667Z,14.40
2017-10-11T16:42:37.077Z,14.40
2017-10-11T16:45:04.498Z,14.20
2017-10-11T16:47:32.693Z,14.10
2017-10-11T16:50:00.107Z,14.10
2017-10-11T16:52:27.522Z,14.10
2017-10-11T16:54:54.939Z,14.00
2017-10-11T16:57:23.113Z,14.00
2017-10-11T16:59:51.293Z,14.10
2017-10-11T17:02:18.706Z,14.10
2017-10-11T17:04:46.121Z,14.00
2017-10-11T17:07:13.535Z,14.00
2017-10-11T17:09:40.947Z,14.10
2017-10-11T17:12:08.359Z,14.00
2017-10-11T17:14:36.545Z,14.10
2017-10-11T17:17:04.721Z,14.00
2017-10-11T17:19:32.899Z,14.10
2017-10-11T17:22:00.320Z,14.00
2017-10-11T17:24:27.737Z,14.10
2017-10-11T17:26:55.157Z,14.10
2017-10-11T17:29:23.333Z,14.10
2017-10-11T17:31:51.530Z,14.10
2017-10-11T17:34:18.938Z,14.10
2017-10-11T17:36:46.362Z,14.10
2017-10-11T17:39:13.774Z,14.00
2017-10-11T17:41:41.958Z,13.70
2017-10-11T17:44:09.371Z,13.70
2017-10-11T17:46:36.787Z,13.60
2017-10-11T17:49:04.203Z,13.60
2017-10-11T17:51:31.614Z,13.60
2017-10-11T17:53:59.745Z,13.60
2017-10-11T17:56:27.916Z,13.60
2017-10-11T17:58:56.105Z,13.70
2017-10-11T18:01:23.516Z,13.60
2017-10-11T18:03:50.929Z,13.60
2017-10-11T18:06:18.342Z,13.60
2017-10-11T18:08:45.750Z,13.60
2017-10-11T18:11:13.179Z,13.60
2017-10-11T18:13:40.586Z,13.70
2017-10-11T18:16:08.011Z,13.60
2017-10-11T18:18:35.427Z,13.60
2017-10-11T18:21:03.617Z,13.60
2017-10-11T18:23:31.785Z,13.60
2017-10-11T18:25:59.965Z,13.30
2017-10-11T18:28:27.382Z,13.30
2017-10-11T18:30:54.818Z,13.30
2017-10-11T18:33:22.216Z,13.10
2017-10-11T18:35:49.641Z,13.00
2017-10-11T18:38:17.048Z,13.10
2017-10-11T18:40:45.225Z,13.10
2017-10-11T18:43:12.643Z,13.10
2017-10-11T18:45:40.062Z,13.10
2017-10-11T18:48:07.483Z,13.10
2017-10-11T18:50:35.658Z,12.70
2017-10-11T18:53:04.175Z,12.70
2017-10-11T18:55:31.682Z,12.70
2017-10-11T18:57:59.864Z,12.60
2017-10-11T19:00:28.056Z,12.80
2017-10-11T19:02:55.466Z,12.80
2017-10-11T19:05:22.907Z,13.00
2017-10-11T19:07:50.412Z,13.20
2017-10-11T19:10:18.593Z,13.40
2017-10-11T19:12:46.010Z,13.40
2017-10-11T19:15:13.438Z,13.50
2017-10-11T19:17:40.838Z,13.50
2017-10-11T19:20:08.254Z,13.60
2017-10-11T19:22:35.661Z,13.60
2017-10-11T19:25:03.854Z,13.40
2017-10-11T19:27:31.271Z,13.40
2017-10-11T19:29:58.695Z,13.50
2017-10-11T19:32:26.113Z,13.50
2017-10-11T19:34:54.301Z,13.50
2017-10-11T19:37:21.717Z,13.50
2017-10-11T19:39:49.128Z,13.60
2017-10-11T19:42:16.542Z,13.60
2017-10-11T19:44:44.722Z,13.10
2017-10-11T19:47:12.906Z,12.70
2017-10-11T19:49:41.091Z,12.40
2017-10-11T19:52:08.507Z,12.30
2017-10-11T19:54:35.927Z,12.20
2017-10-11T19:57:03.338Z,12.20
2017-10-11T19:59:31.530Z,12.50
2017-10-11T20:01:58.947Z,12.50
2017-10-11T20:04:26.360Z,12.70
2017-10-11T20:06:53.761Z,12.90
2017-10-11T20:09:21.192Z,13.10
2017-10-11T20:11:48.602Z,13.10
2017-10-11T20:14:16.785Z,13.10
2017-10-11T20:16:44.213Z,13.10
2017-10-11T20:19:11.626Z,13.40
2017-10-11T20:21:39.041Z,13.70
2017-10-11T20:24:07.250Z,14.00
2017-10-11T20:26:34.654Z,14.00
2017-10-11T20:29:02.840Z,14.30
2017-10-11T20:31:31.021Z,14.40
2017-10-11T20:33:59.275Z,14.40
2017-10-11T20:36:27.631Z,14.40
2017-10-11T20:38:55.070Z,14.40
2017-10-11T20:41:22.486Z,14.40
2017-10-11T20:43:50.683Z,14.60
2017-10-11T20:46:18.100Z,14.50
2017-10-11T20:48:45.501Z,14.60
2017-10-11T20:51:12.918Z,14.50
2017-10-11T20:53:41.090Z,14.70
2017-10-11T20:56:09.272Z,14.80
2017-10-11T20:58:37.451Z,14.70
2017-10-11T21:01:05.635Z,14.80
2017-10-11T21:03:33.056Z,14.80
2017-10-11T21:06:00.478Z,14.80
2017-10-11T21:08:27.884Z,14.80
2017-10-11T21:10:56.065Z,14.80
2017-10-11T21:13:24.250Z,14.80
2017-10-11T21:15:51.667Z,14.80
2017-10-11T21:18:19.086Z,14.90
2017-10-11T21:20:46.497Z,14.80
2017-10-11T21:23:14.689Z,14.80
2017-10-11T21:25:42.090Z,14.70
2017-10-11T21:28:09.516Z,14.80
2017-10-11T21:30:37.333Z,14.80
2017-10-11T21:33:04.754Z,14.70
2017-10-11T21:35:32.181Z,14.80
2017-10-11T21:37:59.603Z,14.70
2017-10-11T21:40:27.020Z,14.80
2017-10-11T21:42:54.438Z,14.80
2017-10-11T21:45:22.627Z,14.80
2017-10-11T21:47:50.049Z,14.80
2017-10-11T21:50:17.460Z,14.70
2017-10-11T21:52:44.883Z,14.60
2017-10-11T21:55:13.066Z,14.40
2017-10-11T21:57:40.478Z,14.40
2017-10-11T22:00:07.902Z,14.40
2017-10-11T22:02:35.310Z,14.50
2017-10-11T22:05:03.509Z,14.40
2017-10-11T22:07:30.922Z,14.30
2017-10-11T22:09:58.345Z,14.40
2017-10-11T22:12:25.928Z,14.40
2017-10-11T22:14:53.343Z,14.30
2017-10-11T22:17:20.764Z,14.30
2017-10-11T22:19:48.171Z,14.20
2017-10-11T22:22:15.587Z,14.20
2017-10-11T22:24:43.762Z,14.20
2017-10-11T22:27:11.950Z,14.20
2017-10-11T22:29:39.358Z,14.10
2017-10-11T22:32:06.780Z,14.20
2017-10-11T22:34:34.194Z,14.20
2017-10-11T22:39:29.307Z,14.10
2017-10-11T22:41:56.742Z,14.10
2017-10-11T22:44:24.142Z,14.10
2017-10-11T22:46:52.444Z,14.10
2017-10-11T22:49:19.859Z,14.10
2017-10-11T22:51:48.047Z,14.10
2017-10-11T22:54:16.225Z,14.00
2017-10-11T22:56:44.403Z,13.90
2017-10-11T22:59:11.831Z,13.90
2017-10-11T23:01:39.242Z,13.90
2017-10-11T23:04:06.700Z,14.00
2017-10-11T23:06:34.118Z,13.90
2017-10-11T23:09:02.300Z,14.00
2017-10-11T23:11:29.707Z,14.00
2017-10-11T23:13:57.133Z,14.10
2017-10-11T23:16:24.539Z,14.10
2017-10-11T23:18:51.954Z,14.00
2017-10-11T23:21:19.362Z,14.00
2017-10-11T23:23:47.546Z,13.90
2017-10-11T23:26:15.724Z,13.80
2017-10-11T23:28:43.925Z,13.80
2017-10-11T23:31:11.321Z,13.80
2017-10-11T23:33:38.738Z,13.80
2017-10-11T23:36:06.154Z,13.80
2017-10-11T23:38:34.348Z,13.70
2017-10-11T23:41:01.757Z,13.70
2017-10-11T23:43:29.178Z,13.70
2017-10-11T23:45:56.585Z,13.70
2017-10-11T23:48:24.002Z,13.70
2017-10-11T23:50:51.425Z,13.70
2017-10-11T23:53:18.842Z,13.70
2017-10-11T23:55:46.261Z,13.70
2017-10-11T23:58:13.678Z,13.60
